Time;durP1;ratioP1;P1;durP2;ratioP2;P2;SDS_P1;SDS_P2;PMS_P1;PMS_P2;Temp;Humidity;BMP_temperature;BMP_pressure;BME280_temperature;BME280_humidity;BME280_pressure;Samples;Min_cycle;Max_cycle;Signal;HPM_P1;HPM_P2
2023/07/31 00:00:24;;;;;;;0.22;0.22;;;;;;;16.89;100.00;99712.59;4985619;28;20026;-94
2023/07/31 00:02:51;;;;;;;0.00;0.00;;;;;;;16.91;100.00;99718.47;4987088;28;20041;-93
2023/07/31 00:05:16;;;;;;;0.00;0.00;;;;;;;16.86;100.00;99719.97;4986796;28;20144;-93
2023/07/31 00:07:42;;;;;;;0.25;0.25;;;;;;;16.84;100.00;99716.84;4987502;28;20050;-93
2023/07/31 00:10:08;;;;;;;0.43;0.43;;;;;;;16.81;100.00;99705.84;4955699;28;20674;-92
2023/07/31 00:12:33;;;;;;;0.17;0.17;;;;;;;16.88;100.00;99708.25;4988154;28;20038;-93
2023/07/31 00:14:59;;;;;;;0.10;0.10;;;;;;;16.85;100.00;99723.22;4954781;28;20035;-93
2023/07/31 00:17:24;;;;;;;0.75;0.20;;;;;;;16.89;100.00;99723.81;4955072;28;20030;-93
2023/07/31 00:19:50;;;;;;;0.30;0.28;;;;;;;16.89;100.00;99726.59;4983026;28;20026;-92
2023/07/31 00:22:16;;;;;;;0.35;0.35;;;;;;;16.94;100.00;99737.91;4969242;28;20037;-94
2023/07/31 00:24:41;;;;;;;0.32;0.32;;;;;;;16.71;100.00;99703.19;4987284;28;20450;-93
2023/07/31 00:27:07;;;;;;;0.05;0.05;;;;;;;16.83;100.00;99717.34;4967661;28;20046;-94
2023/07/31 00:29:32;;;;;;;0.20;0.20;;;;;;;16.89;100.00;99723.81;4962811;28;20088;-93
2023/07/31 00:31:58;;;;;;;0.20;0.10;;;;;;;16.84;100.00;99714.06;4986158;28;20057;-93
2023/07/31 00:34:23;;;;;;;0.43;0.43;;;;;;;16.85;100.00;99724.00;4970241;28;20081;-93
2023/07/31 00:36:49;;;;;;;0.20;0.17;;;;;;;16.82;100.00;99724.22;4955274;28;20121;-93
2023/07/31 00:39:16;;;;;;;22.27;0.50;;;;;;;16.76;100.00;99736.09;4972633;28;20033;-93
2023/07/31 00:41:41;;;;;;;0.10;0.10;;;;;;;16.68;100.00;99731.38;4986791;28;20026;-92
2023/07/31 00:44:07;;;;;;;0.50;0.40;;;;;;;16.73;100.00;99734.28;4955097;28;20501;-93
2023/07/31 00:46:33;;;;;;;0.25;0.25;;;;;;;16.67;100.00;99719.41;4953940;28;20490;-93
2023/07/31 00:48:59;;;;;;;0.38;0.20;;;;;;;16.66;100.00;99717.84;4949238;28;20050;-93
2023/07/31 00:51:24;;;;;;;0.10;0.10;;;;;;;16.69;100.00;99728.09;4966409;28;20030;-93
2023/07/31 00:53:50;;;;;;;0.00;0.00;;;;;;;16.61;100.00;99729.78;4968612;28;20034;-94
2023/07/31 00:56:16;;;;;;;0.40;0.40;;;;;;;16.61;100.00;99743.78;4970284;28;20031;-93
2023/07/31 00:58:42;;;;;;;0.03;0.03;;;;;;;16.42;100.00;99745.19;4954978;28;20034;-93
2023/07/31 01:01:07;;;;;;;0.00;0.00;;;;;;;16.37;100.00;99750.72;4969926;28;20089;-93
2023/07/31 01:03:33;;;;;;;0.60;0.60;;;;;;;16.45;100.00;99763.06;4969227;28;20104;-92
2023/07/31 01:06:09;;;;;;;0.10;0.10;;;;;;;16.48;100.00;99759.28;4985798;28;20117;-93
2023/07/31 01:08:37;;;;;;;0.00;0.00;;;;;;;16.53;100.00;99762.19;4949441;28;20053;-94
2023/07/31 01:11:19;;;;;;;1.25;0.35;;;;;;;16.56;100.00;99760.44;4952389;28;20043;-93
2023/07/31 01:13:45;;;;;;;0.30;0.30;;;;;;;16.55;100.00;99744.88;4972148;28;20081;-92
2023/07/31 01:16:10;;;;;;;0.30;0.30;;;;;;;16.69;100.00;99756.13;4983930;28;20058;-93
2023/07/31 01:18:36;;;;;;;0.55;0.55;;;;;;;16.66;100.00;99750.72;4963377;28;20038;-92
2023/07/31 01:22:03;;;;;;;0.30;0.30;;;;;;;16.87;100.00;99776.72;4963017;28;20088;-93
2023/07/31 01:24:40;;;;;;;0.45;0.43;;;;;;;16.78;100.00;99769.25;4909241;28;20053;-93
2023/07/31 01:27:15;;;;;;;0.00;0.00;;;;;;;16.84;100.00;99769.31;4988105;28;20297;-93
2023/07/31 01:29:56;;;;;;;0.82;0.77;;;;;;;16.82;100.00;99785.84;4952013;28;20040;-93
2023/07/31 01:32:22;;;;;;;0.75;0.63;;;;;;;16.73;100.00;99767.88;4970089;28;20527;-94
2023/07/31 01:34:48;;;;;;;0.08;0.08;;;;;;;16.83;100.00;99771.34;4976724;28;20045;-93
2023/07/31 01:37:14;;;;;;;0.35;0.25;;;;;;;16.92;100.00;99770.44;4988886;28;20513;-93
2023/07/31 01:39:40;;;;;;;0.63;0.38;;;;;;;16.92;100.00;99767.66;4990573;28;20042;-93
2023/07/31 01:42:07;;;;;;;0.88;0.25;;;;;;;16.98;100.00;99774.13;4974949;28;20042;-93
2023/07/31 01:44:32;;;;;;;0.20;0.20;;;;;;;16.90;100.00;99762.53;4973846;28;20030;-93
2023/07/31 01:47:00;;;;;;;0.10;0.10;;;;;;;16.96;100.00;99782.22;4958193;28;20041;-93
2023/07/31 01:49:25;;;;;;;0.50;0.50;;;;;;;16.83;100.00;99759.34;4986027;28;20310;-93
2023/07/31 01:51:51;;;;;;;0.22;0.22;;;;;;;16.81;100.00;99762.66;4952494;28;20427;-93
2023/07/31 01:54:17;;;;;;;0.20;0.20;;;;;;;16.86;100.00;99775.22;4958344;28;20479;-92
2023/07/31 01:56:42;;;;;;;0.35;0.30;;;;;;;16.95;100.00;99789.06;4975817;28;20454;-93
2023/07/31 01:59:08;;;;;;;0.05;0.05;;;;;;;16.95;100.00;99777.88;4967949;28;20034;-93
2023/07/31 02:01:33;;;;;;;0.30;0.30;;;;;;;16.93;100.00;99781.19;4964625;28;20023;-92
2023/07/31 02:03:59;;;;;;;0.38;0.38;;;;;;;16.97;100.00;99781.75;4973230;28;20068;-93
2023/07/31 02:06:25;;;;;;;0.45;0.45;;;;;;;16.89;100.00;99758.19;4975414;28;20030;-93
2023/07/31 02:08:50;;;;;;;0.15;0.15;;;;;;;16.93;100.00;99763.59;4958280;28;20175;-92
2023/07/31 02:11:16;;;;;;;0.30;0.30;;;;;;;17.07;100.00;99779.56;4968235;28;20038;-93
2023/07/31 02:13:42;;;;;;;0.00;0.00;;;;;;;17.07;100.00;99768.38;4957648;28;20153;-92
2023/07/31 02:16:07;;;;;;;0.68;0.60;;;;;;;17.06;100.00;99766.84;4971683;28;20116;-93
2023/07/31 02:18:32;;;;;;;0.22;0.22;;;;;;;17.05;100.00;99759.69;4957323;28;20512;-93
2023/07/31 02:20:58;;;;;;;8.68;0.98;;;;;;;17.08;100.00;99770.69;4956582;28;20022;-92
2023/07/31 02:23:25;;;;;;;2.20;0.70;;;;;;;17.12;100.00;99787.28;4974246;28;20478;-93
2023/07/31 02:25:50;;;;;;;0.75;0.28;;;;;;;17.03;100.00;99768.56;4981807;28;20038;-93
2023/07/31 02:28:16;;;;;;;0.32;0.32;;;;;;;17.05;100.00;99777.28;4972880;28;20043;-94
2023/07/31 02:30:45;;;;;;;0.10;0.10;;;;;;;17.11;100.00;99780.16;4955851;28;20039;-93
2023/07/31 02:33:10;;;;;;;0.10;0.10;;;;;;;17.11;100.00;99778.13;4953567;28;20018;-92
2023/07/31 02:35:36;;;;;;;0.95;0.68;;;;;;;17.13;100.00;99780.44;4968411;28;20038;-94
2023/07/31 02:38:01;;;;;;;0.00;0.00;;;;;;;17.13;100.00;99774.84;4956699;28;20058;-92
2023/07/31 02:40:27;;;;;;;0.38;0.28;;;;;;;17.05;100.00;99771.69;4972111;28;20034;-94
2023/07/31 02:42:52;;;;;;;5.82;0.57;;;;;;;17.05;100.00;99765.28;4988689;28;20122;-92
2023/07/31 02:45:18;;;;;;;0.10;0.10;;;;;;;17.10;100.00;99773.03;4965312;28;20040;-93
2023/07/31 02:47:43;;;;;;;1.20;1.00;;;;;;;17.09;100.00;99775.03;4957401;28;20026;-93
2023/07/31 02:50:09;;;;;;;0.35;0.30;;;;;;;17.07;100.00;99774.75;4965346;28;20039;-93
2023/07/31 02:52:35;;;;;;;0.40;0.40;;;;;;;17.05;100.00;99759.69;4952182;28;20065;-93
2023/07/31 02:55:01;;;;;;;0.22;0.15;;;;;;;17.13;100.00;99777.63;4957919;28;20220;-94
2023/07/31 02:57:26;;;;;;;0.35;0.35;;;;;;;17.05;100.00;99770.91;4971256;28;20073;-93
2023/07/31 02:59:52;;;;;;;0.20;0.20;;;;;;;17.10;100.00;99767.41;4957600;28;20038;-94
2023/07/31 03:02:17;;;;;;;0.08;0.08;;;;;;;17.07;100.00;99757.16;4953712;28;20039;-94
2023/07/31 03:04:43;;;;;;;0.00;0.00;;;;;;;17.06;100.00;99761.25;4971040;28;20048;-92
2023/07/31 03:07:08;;;;;;;0.35;0.30;;;;;;;17.10;100.00;99761.81;4972320;28;20050;-92
2023/07/31 03:09:34;;;;;;;0.10;0.10;;;;;;;17.10;100.00;99764.63;4988964;28;20048;-93
2023/07/31 03:12:00;;;;;;;0.85;0.35;;;;;;;17.19;100.00;99770.06;4973284;28;20049;-92
2023/07/31 03:14:26;;;;;;;0.00;0.00;;;;;;;17.17;100.00;99776.19;4973122;28;20027;-93
2023/07/31 03:16:52;;;;;;;0.25;0.15;;;;;;;17.11;100.00;99766.13;4983195;28;20082;-92
2023/07/31 03:19:18;;;;;;;0.65;0.65;;;;;;;17.09;100.00;99772.25;4986188;28;20065;-92
2023/07/31 03:21:43;;;;;;;0.50;0.50;;;;;;;17.01;100.00;99759.91;4988310;28;20057;-92
2023/07/31 03:24:09;;;;;;;0.40;0.40;;;;;;;17.10;100.00;99773.03;4955148;28;20105;-92
2023/07/31 03:26:36;;;;;;;0.10;0.10;;;;;;;17.08;100.00;99769.91;4966215;28;20034;-93
2023/07/31 03:29:01;;;;;;;0.20;0.20;;;;;;;17.04;100.00;99752.53;4955947;28;20117;-92
2023/07/31 03:31:28;;;;;;;0.13;0.13;;;;;;;17.08;100.00;99764.31;4971258;28;20465;-92
2023/07/31 03:33:54;;;;;;;0.00;0.00;;;;;;;17.08;100.00;99759.47;4986794;28;20520;-92
2023/07/31 03:36:19;;;;;;;0.90;0.65;;;;;;;17.16;100.00;99771.06;4973691;28;20047;-93
2023/07/31 03:38:46;;;;;;;0.63;0.63;;;;;;;17.12;100.00;99776.88;4965348;28;20154;-94
2023/07/31 03:41:12;;;;;;;0.10;0.10;;;;;;;17.20;100.00;99788.44;4962171;28;20031;-94
2023/07/31 03:43:38;;;;;;;0.13;0.13;;;;;;;17.14;100.00;99782.75;4956527;28;20035;-93
2023/07/31 03:46:03;;;;;;;0.25;0.25;;;;;;;17.07;100.00;99771.16;4953318;28;20089;-91
2023/07/31 03:48:30;;;;;;;1.88;0.95;;;;;;;17.20;100.00;99791.25;4953077;28;20026;-91
2023/07/31 03:50:55;;;;;;;0.40;0.40;;;;;;;17.23;100.00;99799.44;4987826;28;20037;-91
2023/07/31 03:53:21;;;;;;;0.00;0.00;;;;;;;17.12;100.00;99782.47;4988688;28;20053;-92
2023/07/31 03:55:46;;;;;;;0.63;0.22;;;;;;;17.10;100.00;99787.03;4989637;28;20472;-94
2023/07/31 03:58:12;;;;;;;0.90;0.75;;;;;;;17.18;100.00;99796.56;4951039;28;20475;-94
2023/07/31 04:00:39;;;;;;;0.93;0.32;;;;;;;17.24;100.00;99806.59;4965734;28;20029;-94
2023/07/31 04:03:04;;;;;;;0.20;0.20;;;;;;;17.20;100.00;99799.66;4970065;28;20129;-94
2023/07/31 04:05:31;;;;;;;0.30;0.30;;;;;;;17.17;100.00;99787.38;4940457;28;20526;-94
2023/07/31 04:07:57;;;;;;;0.57;0.52;;;;;;;17.32;100.00;99815.34;4972904;28;20072;-93
2023/07/31 04:10:22;;;;;;;0.65;0.65;;;;;;;17.32;100.00;99801.34;4957746;28;20490;-93
2023/07/31 04:12:48;;;;;;;0.80;0.45;;;;;;;17.36;100.00;99813.13;4972744;28;20045;-94
2023/07/31 04:15:14;;;;;;;0.22;0.22;;;;;;;17.38;100.00;99818.25;4955851;28;20069;-95
2023/07/31 04:17:39;;;;;;;0.00;0.00;;;;;;;17.36;100.00;99815.94;4954759;28;20036;-94
2023/07/31 04:20:06;;;;;;;0.35;0.25;;;;;;;17.44;100.00;99825.47;4969768;28;20030;-95
2023/07/31 04:22:31;;;;;;;0.75;0.47;;;;;;;17.46;100.00;99817.34;4969845;28;20041;-95
2023/07/31 04:24:59;;;;;;;0.13;0.10;;;;;;;17.40;100.00;99810.88;4984696;28;20039;-94
2023/07/31 04:27:24;;;;;;;0.38;0.20;;;;;;;17.48;100.00;99816.84;4962470;28;20041;-94
2023/07/31 04:29:50;;;;;;;0.57;0.55;;;;;;;17.57;100.00;99825.94;4968078;28;20031;-94
2023/07/31 04:32:18;;;;;;;0.20;0.20;;;;;;;17.49;100.00;99810.75;4971391;28;20042;-94
2023/07/31 04:34:43;;;;;;;0.10;0.10;;;;;;;17.61;100.00;99832.09;4983241;28;20037;-93
2023/07/31 04:37:09;;;;;;;0.38;0.38;;;;;;;17.63;100.00;99826.75;4955797;28;20049;-94
2023/07/31 04:39:34;;;;;;;0.32;0.17;;;;;;;17.63;100.00;99823.97;4954253;28;20034;-95
2023/07/31 04:42:00;;;;;;;0.00;0.00;;;;;;;17.67;100.00;99818.91;4971217;28;20109;-95
2023/07/31 04:44:26;;;;;;;0.20;0.20;;;;;;;17.60;100.00;99805.31;4950662;28;20030;-94
2023/07/31 04:46:51;;;;;;;0.22;0.22;;;;;;;17.66;100.00;99806.16;4972172;28;20383;-95
2023/07/31 04:49:17;;;;;;;0.10;0.10;;;;;;;17.80;100.00;99823.41;4966233;28;20045;-94
2023/07/31 04:51:42;;;;;;;0.10;0.10;;;;;;;17.93;100.00;99821.00;4987275;28;20069;-94
2023/07/31 04:54:08;;;;;;;0.32;0.30;;;;;;;18.01;100.00;99827.72;4953445;28;20372;-95
2023/07/31 04:56:33;;;;;;;0.38;0.38;;;;;;;18.09;100.00;99820.44;4970233;28;20041;-95
2023/07/31 04:58:59;;;;;;;0.30;0.08;;;;;;;18.14;100.00;99822.53;4948148;28;20070;-94
2023/07/31 05:01:25;;;;;;;0.08;0.08;;;;;;;18.15;100.00;99824.84;4952308;28;20034;-94
2023/07/31 05:03:51;;;;;;;0.00;0.00;;;;;;;18.19;100.00;99827.44;4954381;28;20580;-95
2023/07/31 05:06:16;;;;;;;0.32;0.32;;;;;;;18.19;100.00;99819.03;4970958;28;20105;-95
2023/07/31 05:08:42;;;;;;;1.88;0.85;;;;;;;18.33;100.00;99826.56;4955952;28;20050;-94
2023/07/31 05:11:07;;;;;;;7.72;1.75;;;;;;;18.37;100.00;99826.31;4976706;28;20042;-91
2023/07/31 05:13:33;;;;;;;0.00;0.00;;;;;;;18.42;100.00;99828.44;4961570;28;20034;-94
2023/07/31 05:15:58;;;;;;;0.20;0.20;;;;;;;18.47;100.00;99834.09;4995048;28;20026;-95
2023/07/31 05:18:24;;;;;;;0.38;0.38;;;;;;;18.49;100.00;99845.59;4951807;28;20038;-95
2023/07/31 05:20:49;;;;;;;0.10;0.10;;;;;;;18.48;100.00;99827.19;4955860;28;20435;-95
2023/07/31 05:23:15;;;;;;;0.10;0.10;;;;;;;18.44;100.00;99826.66;4955130;28;20080;-95
2023/07/31 05:25:41;;;;;;;0.30;0.30;;;;;;;18.58;100.00;99851.09;4967226;28;20031;-94
2023/07/31 05:28:06;;;;;;;0.03;0.03;;;;;;;18.55;100.00;99832.44;4978900;28;20034;-95
2023/07/31 05:30:32;;;;;;;0.10;0.10;;;;;;;18.69;100.00;99841.22;4970685;28;20447;-96
2023/07/31 05:32:58;;;;;;;0.20;0.20;;;;;;;18.84;100.00;99847.50;4978895;28;20073;-95
2023/07/31 05:35:24;;;;;;;0.22;0.20;;;;;;;18.81;100.00;99820.38;4960646;28;20041;-96
2023/07/31 05:37:50;;;;;;;0.17;0.17;;;;;;;18.93;100.00;99810.75;4962281;28;20116;-96
2023/07/31 05:40:16;;;;;;;0.85;0.85;;;;;;;19.13;100.00;99830.31;4958780;28;20360;-96
2023/07/31 05:42:42;;;;;;;0.43;0.20;;;;;;;19.15;100.00;99816.53;4960136;28;20184;-95
2023/07/31 05:45:08;;;;;;;2.20;1.02;;;;;;;19.31;100.00;99812.28;4956039;28;20065;-96
2023/07/31 05:47:34;;;;;;;0.10;0.10;;;;;;;19.80;100.00;99856.06;4986535;28;20038;-94
2023/07/31 05:50:05;;;;;;;0.20;0.20;;;;;;;19.60;100.00;99806.34;4974997;28;20038;-95
2023/07/31 05:52:31;;;;;;;0.47;0.47;;;;;;;19.72;100.00;99802.31;4974199;28;20034;-96
2023/07/31 05:54:57;;;;;;;0.55;0.32;;;;;;;20.05;100.00;99823.41;4979767;28;20034;-95
2023/07/31 05:57:23;;;;;;;0.08;0.08;;;;;;;20.28;97.96;99831.38;4981419;28;20038;-95
2023/07/31 05:59:48;;;;;;;0.03;0.03;;;;;;;20.30;97.53;99797.88;4959886;28;20035;-95
2023/07/31 06:02:14;;;;;;;0.30;0.30;;;;;;;20.55;98.70;99820.69;4959301;28;20568;-95
2023/07/31 06:04:40;;;;;;;0.00;0.00;;;;;;;20.94;95.64;99846.88;4958534;28;20498;-95
2023/07/31 06:07:06;;;;;;;0.32;0.32;;;;;;;21.11;91.63;99858.88;4957332;28;20053;-95
2023/07/31 06:09:37;;;;;;;0.30;0.25;;;;;;;20.93;89.15;99822.75;4956547;28;20035;-96
2023/07/31 06:12:08;;;;;;;0.30;0.30;;;;;;;21.17;87.52;99842.78;4968459;28;20041;-95
2023/07/31 06:14:37;;;;;;;0.15;0.15;;;;;;;21.28;87.23;99839.91;5004464;28;20095;-95
2023/07/31 06:17:06;;;;;;;0.35;0.17;;;;;;;21.56;84.34;99856.00;4976320;28;20114;-94
2023/07/31 06:19:31;;;;;;;0.30;0.30;;;;;;;21.56;82.41;99839.09;4972114;28;20030;-94
2023/07/31 06:21:57;;;;;;;0.20;0.20;;;;;;;21.70;81.33;99843.66;4977053;28;20204;-95
2023/07/31 06:24:23;;;;;;;0.70;0.70;;;;;;;21.68;80.82;99809.53;4960227;28;20109;-94
2023/07/31 06:26:50;;;;;;;0.00;0.00;;;;;;;21.95;75.15;99836.16;4986927;28;20506;-95
2023/07/31 06:29:16;;;;;;;0.20;0.20;;;;;;;21.68;72.49;99806.72;4966364;28;20033;-95
2023/07/31 06:31:42;;;;;;;0.00;0.00;;;;;;;21.80;74.55;99814.63;4955974;28;20510;-96
2023/07/31 06:34:10;;;;;;;0.20;0.20;;;;;;;22.21;74.74;99870.44;4976875;28;20121;-96
2023/07/31 06:36:37;;;;;;;1.95;1.05;;;;;;;21.97;69.55;99825.88;4985618;28;20038;-96
2023/07/31 06:39:13;;;;;;;;;;;;;;;;;;;;;
2023/07/31 06:41:44;;;;;;;0.95;0.57;;;;;;;22.22;70.15;99844.50;4982618;28;20117;-95
2023/07/31 06:44:10;;;;;;;0.20;0.20;;;;;;;22.18;70.95;99812.91;4973950;28;20039;-95
2023/07/31 06:46:36;;;;;;;0.00;0.00;;;;;;;22.35;69.50;99820.53;4957030;28;20029;-95
2023/07/31 06:49:05;;;;;;;0.20;0.20;;;;;;;22.60;68.53;99833.47;4955803;28;20026;-96
2023/07/31 06:51:46;;;;;;;0.20;0.20;;;;;;;22.66;65.88;99828.53;4982756;28;20030;-95
2023/07/31 06:54:21;;;;;;;0.40;0.40;;;;;;;22.93;68.52;99844.53;4963073;28;20125;-96
2023/07/31 06:56:47;;;;;;;0.15;0.15;;;;;;;22.96;68.85;99831.41;4986931;28;20069;-94
2023/07/31 06:59:15;;;;;;;0.32;0.25;;;;;;;22.98;64.38;99828.81;4963463;28;20041;-95
2023/07/31 07:01:41;;;;;;;0.32;0.25;;;;;;;23.10;62.83;99850.81;4975092;28;20073;-95
2023/07/31 07:04:07;;;;;;;0.10;0.10;;;;;;;23.24;59.79;99858.16;4960729;28;20057;-95
2023/07/31 07:06:33;;;;;;;0.15;0.15;;;;;;;23.17;61.37;99830.41;4962119;28;20034;-95
2023/07/31 07:08:59;;;;;;;0.57;0.57;;;;;;;23.36;62.61;99824.06;4971571;28;20138;-95
2023/07/31 07:11:25;;;;;;;1.35;0.43;;;;;;;23.67;61.62;99844.06;4962506;28;20034;-95
2023/07/31 07:13:50;;;;;;;0.65;0.50;;;;;;;23.85;60.47;99851.09;4964248;28;20056;-94
2023/07/31 07:16:18;;;;;;;0.30;0.10;;;;;;;23.82;56.72;99849.31;4966208;28;20053;-94
2023/07/31 07:18:51;;;;;;;0.20;0.20;;;;;;;23.80;57.47;99854.75;4977089;28;20473;-94
2023/07/31 07:21:17;;;;;;;0.25;0.20;;;;;;;23.98;59.83;99873.81;4975762;28;20129;-95
2023/07/31 07:23:43;;;;;;;0.05;0.05;;;;;;;24.03;58.53;99858.84;4978313;28;20057;-95
2023/07/31 07:26:09;;;;;;;0.30;0.30;;;;;;;24.30;57.35;99878.88;4977949;28;20498;-95
2023/07/31 07:28:37;;;;;;;0.52;0.52;;;;;;;24.54;53.81;99870.28;4971582;28;20060;-93
2023/07/31 07:31:02;;;;;;;0.10;0.10;;;;;;;24.53;50.99;99868.75;4990321;28;20568;-94
2023/07/31 07:33:28;;;;;;;1.92;0.75;;;;;;;24.61;51.16;99875.34;4989156;28;20026;-93
2023/07/31 07:35:54;;;;;;;0.15;0.15;;;;;;;24.49;52.27;99871.13;4969694;28;20070;-95
2023/07/31 07:38:19;;;;;;;0.40;0.40;;;;;;;24.61;50.85;99867.59;4987343;28;20092;-95
2023/07/31 07:40:46;;;;;;;0.28;0.28;;;;;;;24.43;49.67;99868.38;4989461;28;20038;-94
2023/07/31 07:43:12;;;;;;;0.20;0.20;;;;;;;24.51;49.82;99868.50;4967894;28;20043;-94
2023/07/31 07:45:38;;;;;;;0.30;0.30;;;;;;;24.52;50.78;99850.97;4969656;28;20026;-95
2023/07/31 07:48:03;;;;;;;1.65;0.77;;;;;;;24.45;49.33;99830.97;4984305;28;20683;-94
2023/07/31 07:50:29;;;;;;;0.93;0.32;;;;;;;24.66;49.77;99845.38;4965500;28;20030;-94
2023/07/31 07:52:55;;;;;;;0.30;0.30;;;;;;;24.92;49.84;99853.97;4967132;28;20030;-94
2023/07/31 07:55:20;;;;;;;0.00;0.00;;;;;;;24.99;49.88;99851.28;4970123;28;20491;-95
2023/07/31 07:57:46;;;;;;;0.38;0.38;;;;;;;25.25;51.05;99853.41;4970971;28;20050;-95
2023/07/31 08:00:14;;;;;;;0.13;0.13;;;;;;;25.34;49.85;99860.75;4970326;28;20435;-95
2023/07/31 08:02:39;;;;;;;0.57;0.45;;;;;;;25.18;48.16;99861.81;4970603;28;20034;-95
2023/07/31 08:05:05;;;;;;;1.25;0.65;;;;;;;25.29;49.72;99864.44;4953167;28;20042;-94
2023/07/31 08:07:30;;;;;;;0.10;0.10;;;;;;;25.13;48.36;99871.19;4971720;28;20576;-94
2023/07/31 08:09:56;;;;;;;1.75;0.28;;;;;;;25.37;48.92;99853.97;4969135;28;20478;-94
2023/07/31 08:12:22;;;;;;;0.77;0.35;;;;;;;25.51;48.46;99844.16;4963911;28;20204;-94
2023/07/31 08:14:47;;;;;;;0.10;0.10;;;;;;;25.61;47.72;99836.75;4970760;28;20031;-94
2023/07/31 08:17:13;;;;;;;0.25;0.13;;;;;;;26.02;48.23;99858.16;4953168;28;20451;-94
2023/07/31 08:19:38;;;;;;;0.20;0.20;;;;;;;26.12;46.52;99850.72;4985540;28;20034;-94
2023/07/31 08:22:04;;;;;;;0.38;0.38;;;;;;;26.35;46.38;99861.06;4950272;28;20092;-94
2023/07/31 08:24:29;;;;;;;0.70;0.45;;;;;;;26.20;45.77;99841.00;4969822;28;20486;-94
2023/07/31 08:26:55;;;;;;;0.45;0.45;;;;;;;26.46;47.33;99862.91;4954759;28;20038;-93
2023/07/31 08:29:20;;;;;;;0.22;0.22;;;;;;;26.52;45.54;99860.69;4972095;28;20049;-94
2023/07/31 08:31:46;;;;;;;0.13;0.08;;;;;;;26.34;44.74;99855.94;4954396;28;20034;-94
2023/07/31 08:34:11;;;;;;;0.20;0.20;;;;;;;26.37;43.63;99843.44;4954218;28;20117;-94
2023/07/31 08:36:37;;;;;;;0.98;0.63;;;;;;;26.65;45.77;99862.75;4950094;28;20041;-94
2023/07/31 08:39:03;;;;;;;0.35;0.35;;;;;;;26.75;45.81;99853.16;4968758;28;20129;-94
2023/07/31 08:41:29;;;;;;;0.10;0.10;;;;;;;26.76;44.35;99856.78;4956396;28;20042;-94
2023/07/31 08:43:55;;;;;;;0.20;0.20;;;;;;;26.81;44.32;99868.00;4952257;28;20047;-95
2023/07/31 08:46:21;;;;;;;0.20;0.20;;;;;;;26.84;45.44;99847.03;4986840;28;20027;-94
2023/07/31 08:48:47;;;;;;;0.30;0.30;;;;;;;26.92;44.62;99869.09;4954677;28;20061;-94
2023/07/31 08:51:14;;;;;;;0.65;0.65;;;;;;;27.01;44.12;99872.22;4953273;28;20490;-94
2023/07/31 08:53:40;;;;;;;2.25;0.60;;;;;;;26.86;43.62;99864.28;4965356;28;20132;-93
2023/07/31 08:56:06;;;;;;;0.20;0.20;;;;;;;27.02;44.26;99879.44;4957058;28;20624;-96
2023/07/31 08:58:32;;;;;;;0.60;0.38;;;;;;;27.10;44.59;99873.81;4955466;28;20041;-94
2023/07/31 09:01:01;;;;;;;0.60;0.60;;;;;;;27.11;44.69;99866.78;4972418;28;20046;-94
2023/07/31 09:03:26;;;;;;;0.20;0.20;;;;;;;27.34;44.14;99870.59;4955598;28;20038;-94
2023/07/31 09:05:53;;;;;;;0.22;0.22;;;;;;;27.52;44.45;99868.84;4969616;28;20038;-94
2023/07/31 09:08:20;;;;;;;0.10;0.10;;;;;;;27.56;43.97;99875.72;4972254;28;20053;-93
2023/07/31 09:10:47;;;;;;;0.28;0.28;;;;;;;27.89;42.36;99873.28;4947895;28;20026;-95
2023/07/31 09:13:13;;;;;;;0.28;0.28;;;;;;;27.74;41.96;99879.66;4952761;28;20110;-94
2023/07/31 09:15:40;;;;;;;1.45;1.02;;;;;;;27.91;41.29;99867.75;4952704;28;20035;-95
2023/07/31 09:18:11;;;;;;;0.22;0.22;;;;;;;27.74;41.20;99860.44;4969231;28;20127;-96
2023/07/31 09:20:37;;;;;;;0.38;0.38;;;;;;;28.01;41.36;99880.94;4960792;28;20140;-94
2023/07/31 09:23:13;;;;;;;0.10;0.10;;;;;;;27.91;42.04;99876.31;4972446;28;20078;-95
2023/07/31 09:25:43;;;;;;;0.50;0.50;;;;;;;28.01;41.11;99868.78;4979001;28;20053;-96
2023/07/31 09:28:10;;;;;;;0.30;0.30;;;;;;;28.25;40.64;99874.06;4982210;28;20520;-95
2023/07/31 09:30:50;;;;;;;0.20;0.20;;;;;;;28.22;41.08;99843.81;4957221;28;20064;-95
2023/07/31 09:33:16;;;;;;;0.30;0.20;;;;;;;28.66;42.05;99847.38;4989328;28;20038;-95
2023/07/31 09:35:41;;;;;;;0.35;0.35;;;;;;;28.66;41.72;99862.41;4972483;28;20042;-95
2023/07/31 09:38:09;;;;;;;0.65;0.65;;;;;;;28.93;41.72;99862.06;4956738;28;20528;-95
2023/07/31 09:40:39;;;;;;;0.70;0.70;;;;;;;29.10;41.02;99868.00;4972750;28;20387;-95
2023/07/31 09:43:06;;;;;;;0.20;0.20;;;;;;;29.11;40.38;99846.69;4956677;28;20031;-95
2023/07/31 09:45:42;;;;;;;0.45;0.35;;;;;;;29.20;40.82;99848.94;4957078;28;20031;-95
2023/07/31 09:48:16;;;;;;;17.42;1.10;;;;;;;29.40;39.96;99853.72;4955838;28;20042;-95
2023/07/31 09:50:49;;;;;;;0.25;0.25;;;;;;;29.22;38.45;99862.66;5000291;28;20125;-95
2023/07/31 09:53:15;;;;;;;0.20;0.20;;;;;;;28.75;38.86;99855.41;4957504;28;20145;-95
2023/07/31 09:55:42;;;;;;;0.35;0.35;;;;;;;28.64;38.83;99856.47;4974575;28;20027;-96
2023/07/31 09:58:09;;;;;;;0.30;0.30;;;;;;;28.96;39.89;99852.38;4989557;28;20565;-95
2023/07/31 10:00:35;;;;;;;0.35;0.30;;;;;;;29.11;38.75;99853.16;4960674;28;20121;-96
2023/07/31 10:03:04;;;;;;;0.32;0.32;;;;;;;29.42;38.29;99842.50;4968172;28;20077;-94
2023/07/31 10:05:38;;;;;;;0.20;0.20;;;;;;;29.57;37.33;99842.47;4975059;28;20034;-95
2023/07/31 10:08:04;;;;;;;0.47;0.47;;;;;;;29.43;38.44;99821.16;4976246;28;20229;-95
2023/07/31 10:10:29;;;;;;;0.65;0.43;;;;;;;29.34;38.43;99841.75;4981306;28;20037;-95
2023/07/31 10:12:59;;;;;;;0.30;0.30;;;;;;;29.42;38.60;99836.03;4977898;28;20034;-95
2023/07/31 10:15:25;;;;;;;0.40;0.40;;;;;;;29.32;38.44;99841.53;4959747;28;20030;-94
2023/07/31 10:17:51;;;;;;;0.30;0.30;;;;;;;29.37;38.95;99826.31;4959308;28;20038;-95
2023/07/31 10:20:17;;;;;;;0.20;0.20;;;;;;;29.52;39.30;99809.13;4989377;28;20038;-95
2023/07/31 10:22:43;;;;;;;0.52;0.52;;;;;;;29.36;38.69;99832.63;4974306;28;20038;-94
2023/07/31 10:25:09;;;;;;;0.70;0.63;;;;;;;29.35;39.73;99811.84;4973978;28;20100;-95
2023/07/31 10:27:36;;;;;;;7.65;1.17;;;;;;;29.75;39.55;99825.47;4991462;28;20042;-94
2023/07/31 10:30:03;;;;;;;0.20;0.20;;;;;;;29.98;38.29;99814.75;4958462;28;20049;-94
2023/07/31 10:32:29;;;;;;;0.47;0.30;;;;;;;29.95;38.63;99818.75;4970195;28;20387;-95
2023/07/31 10:34:55;;;;;;;0.45;0.38;;;;;;;30.22;38.08;99819.03;4974222;28;20116;-95
2023/07/31 10:37:24;;;;;;;0.55;0.55;;;;;;;30.26;37.66;99822.25;4975242;28;20050;-96
2023/07/31 10:40:06;;;;;;;0.20;0.20;;;;;;;30.34;38.17;99823.72;4974988;28;20121;-95
2023/07/31 10:42:49;;;;;;;0.60;0.60;;;;;;;30.28;36.30;99814.63;4974812;28;20520;-95
2023/07/31 10:45:27;;;;;;;0.15;0.15;;;;;;;30.33;37.26;99819.34;4989248;28;20085;-94
2023/07/31 10:48:00;;;;;;;0.55;0.47;;;;;;;30.20;37.00;99798.81;4975795;28;20038;-93
2023/07/31 10:50:27;;;;;;;0.35;0.35;;;;;;;30.15;37.21;99791.97;4977469;28;20042;-94
2023/07/31 10:52:54;;;;;;;0.20;0.20;;;;;;;30.33;36.94;99807.91;4972428;28;20457;-94
2023/07/31 10:55:42;;;;;;;0.30;0.30;;;;;;;30.39;37.38;99804.81;4960371;28;20400;-95
2023/07/31 10:58:10;;;;;;;0.55;0.55;;;;;;;30.35;36.52;99810.94;4993087;28;20049;-94
2023/07/31 11:00:43;;;;;;;0.68;0.65;;;;;;;30.26;37.42;99802.97;4957467;28;20122;-94
2023/07/31 11:03:11;;;;;;;0.20;0.20;;;;;;;30.27;36.83;99780.84;4992349;28;20073;-94
2023/07/31 11:05:47;;;;;;;0.30;0.30;;;;;;;30.63;37.86;99803.34;4992545;28;20124;-94
2023/07/31 11:08:41;;;;;;;0.47;0.47;;;;;;;30.67;36.26;99800.84;4976464;28;20078;-94
2023/07/31 11:11:08;;;;;;;0.40;0.40;;;;;;;30.44;36.46;99801.00;4991430;28;20049;-95
2023/07/31 11:13:40;;;;;;;0.30;0.30;;;;;;;30.08;37.24;99789.94;4973032;28;20397;-94
2023/07/31 11:16:06;;;;;;;0.65;0.65;;;;;;;30.18;37.68;99790.06;4974772;28;20501;-95
2023/07/31 11:18:31;;;;;;;0.55;0.55;;;;;;;30.33;38.00;99775.69;4954052;28;20027;-95
2023/07/31 11:20:57;;;;;;;0.40;0.40;;;;;;;30.84;37.29;99778.00;4972146;28;20508;-95
2023/07/31 11:23:23;;;;;;;0.80;0.80;;;;;;;30.28;37.10;99743.09;4969187;28;20021;-95
2023/07/31 11:25:49;;;;;;;0.40;0.40;;;;;;;30.53;37.19;99751.72;5003050;28;20123;-95
2023/07/31 11:28:16;;;;;;;2.63;1.15;;;;;;;30.41;37.07;99750.66;4969414;28;20026;-95